createdAt,value
2023-01-21T01:11:55.541Z,92577.00
2023-01-21T01:12:55.604Z,92575.00
2023-01-21T01:13:55.637Z,92577.00
2023-01-21T01:14:55.704Z,92577.00
2023-01-21T01:15:55.765Z,92573.00
2023-01-21T01:16:55.801Z,92579.00
2023-01-21T01:17:55.869Z,92579.00
2023-01-21T01:18:55.928Z,92579.00
2023-01-21T01:19:55.966Z,92579.00
2023-01-21T01:20:56.048Z,92583.00
2023-01-21T01:21:56.084Z,92579.00
2023-01-21T01:22:56.145Z,92587.00
2023-01-21T01:23:56.204Z,92585.00
2023-01-21T01:24:56.326Z,92587.00
2023-01-21T01:25:56.332Z,92587.00
2023-01-21T01:26:56.384Z,92587.00
2023-01-21T01:27:56.440Z,92587.00
2023-01-21T01:28:56.486Z,92589.00
2023-01-21T01:29:56.553Z,92585.00
2023-01-21T01:30:57.575Z,92587.00
2023-01-21T01:31:56.672Z,92587.00
2023-01-21T01:32:56.724Z,92587.00
2023-01-21T01:33:56.777Z,92587.00
2023-01-21T01:34:56.834Z,92583.00
2023-01-21T01:35:56.912Z,92583.00
2023-01-21T01:36:56.962Z,92583.00
2023-01-21T01:37:57.028Z,92585.00
2023-01-21T01:38:57.081Z,92583.00
2023-01-21T01:39:57.139Z,92583.00
2023-01-21T01:40:57.286Z,92585.00
2023-01-21T01:41:57.262Z,92585.00
2023-01-21T01:42:57.324Z,92585.00
2023-01-21T01:43:57.445Z,92587.00
2023-01-21T01:44:57.448Z,92587.00
2023-01-21T01:45:57.510Z,92583.00
2023-01-21T01:46:57.556Z,92585.00
2023-01-21T01:47:57.613Z,92585.00
2023-01-21T01:48:57.675Z,92583.00
2023-01-21T01:49:57.739Z,92587.00
2023-01-21T01:50:57.809Z,92587.00
2023-01-21T01:51:57.854Z,92585.00
2023-01-21T01:52:57.912Z,92587.00
2023-01-21T01:53:57.976Z,92587.00
2023-01-21T01:54:58.027Z,92585.00
2023-01-21T01:55:58.082Z,92583.00
2023-01-21T01:56:58.133Z,92585.00
2023-01-21T01:57:58.199Z,92581.00
2023-01-21T01:58:58.259Z,92581.00
2023-01-21T01:59:58.318Z,92581.00
2023-01-21T02:00:58.378Z,92583.00
2023-01-21T02:01:58.470Z,92585.00
2023-01-21T02:02:58.511Z,92581.00
2023-01-21T02:03:58.654Z,92583.00
2023-01-21T02:04:58.598Z,92583.00
2023-01-21T02:06:58.653Z,92581.00
2023-01-21T02:07:58.671Z,92579.00
2023-01-21T02:08:58.697Z,92579.00
2023-01-21T02:09:58.700Z,92577.00
2023-01-21T02:10:58.640Z,92575.00
2023-01-21T02:11:58.622Z,92575.00
2023-01-21T02:12:58.611Z,92575.00
2023-01-21T02:13:58.610Z,92573.00
2023-01-21T02:14:58.593Z,92575.00
2023-01-21T02:15:58.589Z,92575.00
2023-01-21T02:16:58.598Z,92573.00
2023-01-21T02:17:58.565Z,92573.00
2023-01-21T02:18:58.567Z,92575.00
2023-01-21T02:19:58.581Z,92575.00
2023-01-21T02:20:58.555Z,92573.00
2023-01-21T02:21:58.557Z,92575.00
2023-01-21T02:22:58.544Z,92575.00
2023-01-21T02:23:58.537Z,92573.00
2023-01-21T02:24:58.527Z,92575.00
2023-01-21T02:25:58.510Z,92573.00
2023-01-21T02:26:58.513Z,92575.00
2023-01-21T02:27:58.501Z,92575.00
2023-01-21T02:28:58.512Z,92573.00
2023-01-21T02:29:58.499Z,92566.00
2023-01-21T02:43:58.395Z,92573.00
2023-01-21T02:44:58.402Z,92573.00
2023-01-21T02:45:58.387Z,92573.00
2023-01-21T02:46:58.390Z,92566.00
2023-01-21T02:47:58.417Z,92566.00
2023-01-21T02:48:58.480Z,92573.00
2023-01-21T02:49:58.549Z,92573.00
2023-01-21T02:50:58.645Z,92564.00
2023-01-21T02:51:58.644Z,92564.00
2023-01-21T02:52:58.721Z,92566.00
2023-01-21T02:53:58.764Z,92566.00
2023-01-21T02:54:58.824Z,92564.00
2023-01-21T02:55:58.863Z,92562.00
2023-01-21T02:56:58.891Z,92566.00
2023-01-21T02:57:58.933Z,92562.00
2023-01-21T02:58:58.956Z,92562.00
2023-01-21T02:59:58.939Z,92560.00
2023-01-21T03:00:59.011Z,92560.00
2023-01-21T03:01:58.978Z,92560.00
2023-01-21T03:02:58.973Z,92560.00
2023-01-21T04:03:01.374Z,92552.00
2023-01-21T04:04:01.398Z,92550.00
2023-01-21T04:05:01.431Z,92550.00
2023-01-21T04:06:01.483Z,92550.00
2023-01-21T04:07:01.515Z,92548.00
2023-01-21T04:08:01.552Z,92548.00
2023-01-21T04:09:01.633Z,92548.00
2023-01-21T04:10:01.653Z,92550.00
2023-01-21T04:11:02.526Z,92550.00
2023-01-21T04:12:01.729Z,92550.00
2023-01-21T04:13:01.768Z,92552.00
2023-01-21T04:14:01.799Z,92552.00
2023-01-21T04:15:05.072Z,92552.00
2023-01-21T04:16:01.841Z,92554.00
2023-01-21T04:17:01.840Z,92554.00
2023-01-21T04:18:01.831Z,92554.00
2023-01-21T04:19:01.836Z,92556.00
2023-01-21T04:20:01.834Z,92556.00
2023-01-21T04:21:01.828Z,92556.00
2023-01-21T04:22:01.817Z,92554.00
2023-01-21T04:23:01.799Z,92554.00
2023-01-21T04:24:01.804Z,92554.00
2023-01-21T04:25:01.792Z,92554.00
2023-01-21T04:26:01.776Z,92552.00
2023-01-21T04:27:01.771Z,92552.00
2023-01-21T04:28:01.779Z,92552.00
2023-01-21T04:29:01.767Z,92550.00
2023-01-21T04:30:01.756Z,92548.00
2023-01-21T04:31:01.795Z,92548.00
2023-01-21T04:32:01.830Z,92546.00
2023-01-21T04:33:01.730Z,92548.00
2023-01-21T04:34:01.736Z,92546.00
2023-01-21T04:35:01.716Z,92542.00
2023-01-21T04:36:01.711Z,92544.00
2023-01-21T04:37:01.702Z,92544.00
2023-01-21T04:38:01.686Z,92544.00
2023-01-21T04:39:01.689Z,92544.00
2023-01-21T04:40:01.675Z,92546.00
2023-01-21T04:41:01.667Z,92544.00
2023-01-21T04:42:01.661Z,92544.00
2023-01-21T04:43:01.654Z,92544.00
2023-01-21T04:44:01.670Z,92544.00
2023-01-21T04:45:01.660Z,92544.00
2023-01-21T04:46:01.703Z,92544.00
2023-01-21T04:47:01.630Z,92546.00
2023-01-21T04:48:01.638Z,92548.00
2023-01-21T04:49:01.620Z,92548.00
2023-01-21T04:50:01.615Z,92550.00
2023-01-21T04:51:01.642Z,92550.00
2023-01-21T04:52:01.602Z,92546.00
2023-01-21T04:53:02.536Z,92550.00
2023-01-21T04:54:01.574Z,92550.00
2023-01-21T04:55:01.579Z,92550.00
2023-01-21T04:56:01.588Z,92548.00
2023-01-21T04:57:01.565Z,92548.00
2023-01-21T04:58:01.541Z,92550.00
2023-01-21T04:59:01.548Z,92548.00
2023-01-21T05:00:01.537Z,92548.00
2023-01-21T05:01:01.583Z,92548.00
2023-01-21T05:02:01.534Z,92546.00
2023-01-21T05:03:01.525Z,92544.00
2023-01-21T05:04:01.546Z,92542.00
2023-01-21T05:05:01.492Z,92542.00
2023-01-21T05:06:01.497Z,92544.00
2023-01-21T05:07:01.549Z,92544.00
2023-01-21T05:08:01.556Z,92546.00
2023-01-21T05:09:01.565Z,92546.00
2023-01-21T05:10:01.587Z,92542.00
2023-01-21T05:11:01.585Z,92542.00
2023-01-21T05:12:01.602Z,92542.00
2023-01-21T05:13:01.609Z,92544.00
2023-01-21T05:14:01.625Z,92546.00
2023-01-21T05:15:02.603Z,92548.00
2023-01-21T05:16:01.686Z,92546.00
2023-01-21T05:17:01.704Z,92546.00
2023-01-21T05:18:02.542Z,92546.00
2023-01-21T05:19:01.730Z,92546.00
2023-01-21T05:20:01.711Z,92544.00
2023-01-21T05:21:01.719Z,92544.00
2023-01-21T05:22:01.723Z,92546.00
2023-01-21T05:23:01.741Z,92548.00
2023-01-21T05:24:01.762Z,92548.00
2023-01-21T05:25:02.560Z,92550.00
2023-01-21T05:26:01.808Z,92552.00
2023-01-21T05:27:01.792Z,92550.00
2023-01-21T05:28:02.553Z,92552.00
2023-01-21T05:29:01.798Z,92552.00
2023-01-21T05:30:01.798Z,92550.00
2023-01-21T05:31:02.017Z,92552.00
2023-01-21T05:32:01.895Z,92548.00
2023-01-21T05:33:01.854Z,92548.00
2023-01-21T05:34:01.829Z,92548.00
2023-01-21T05:35:01.829Z,92548.00
2023-01-21T05:36:01.862Z,92548.00
2023-01-21T05:37:01.830Z,92548.00
2023-01-21T05:38:01.833Z,92548.00
2023-01-21T05:39:01.842Z,92546.00
2023-01-21T05:40:01.856Z,92546.00
2023-01-21T05:41:01.900Z,92548.00
2023-01-21T05:42:01.981Z,92552.00
2023-01-21T05:43:01.930Z,92550.00
2023-01-21T05:44:01.943Z,92550.00
2023-01-21T05:45:01.954Z,92550.00
2023-01-21T05:46:01.987Z,92552.00
2023-01-21T05:47:01.979Z,92552.00
2023-01-21T05:48:02.017Z,92550.00
2023-01-21T05:49:02.014Z,92550.00
2023-01-21T05:50:02.053Z,92550.00
2023-01-21T05:51:02.094Z,92546.00
2023-01-21T05:52:02.086Z,92548.00
2023-01-21T05:53:02.075Z,92548.00
2023-01-21T05:54:02.103Z,92546.00
2023-01-21T05:55:02.987Z,92548.00
2023-01-21T05:56:02.171Z,92546.00
2023-01-21T05:57:02.116Z,92548.00
2023-01-21T05:58:02.111Z,92550.00
2023-01-21T05:59:02.125Z,92552.00
2023-01-21T06:00:02.134Z,92552.00
2023-01-21T06:01:02.137Z,92554.00
2023-01-21T06:02:02.219Z,92556.00
2023-01-21T06:03:02.180Z,92560.00
2023-01-21T06:04:02.180Z,92560.00
2023-01-21T06:05:02.230Z,92556.00
2023-01-21T06:06:02.235Z,92554.00
2023-01-21T06:07:02.215Z,92556.00
2023-01-21T06:08:02.208Z,92560.00
2023-01-21T06:09:02.224Z,92560.00
2023-01-21T06:10:02.240Z,92562.00
2023-01-21T06:11:02.249Z,92560.00
2023-01-21T06:12:02.248Z,92560.00
2023-01-21T06:13:02.260Z,92564.00
2023-01-21T06:14:02.269Z,92566.00
2023-01-21T06:15:02.341Z,92566.00
2023-01-21T06:16:02.284Z,92566.00
2023-01-21T06:17:03.062Z,92564.00
2023-01-21T06:18:02.248Z,92564.00
2023-01-21T06:19:02.220Z,92573.00
2023-01-21T06:20:02.225Z,92566.00
2023-01-21T06:21:02.213Z,92566.00
2023-01-21T06:22:02.212Z,92573.00
2023-01-21T07:07:02.425Z,92587.00
2023-01-21T07:08:02.441Z,92587.00
2023-01-21T07:09:02.465Z,92585.00
2023-01-21T07:10:02.443Z,92587.00
2023-01-21T07:11:02.429Z,92585.00
2023-01-21T08:31:03.882Z,92623.00
2023-01-21T08:32:03.864Z,92625.00
2023-01-21T08:33:06.467Z,92627.00
2023-01-21T08:34:04.140Z,92628.00
2023-01-21T08:35:04.181Z,92625.00
2023-01-21T08:36:04.230Z,92623.00
2023-01-21T08:37:04.283Z,92623.00
2023-01-21T08:38:04.316Z,92623.00
2023-01-21T08:39:04.346Z,92625.00
2023-01-21T08:41:04.506Z,92623.00
2023-01-21T08:43:04.550Z,92627.00
2023-01-21T08:54:05.642Z,92627.00
2023-01-21T09:00:05.546Z,92623.00
2023-01-21T09:01:05.636Z,92617.00
2023-01-21T09:02:05.718Z,92621.00
2023-01-21T09:03:05.748Z,92621.00
2023-01-21T09:04:05.788Z,92621.00
2023-01-21T09:05:05.855Z,92623.00
2023-01-21T09:06:05.907Z,92625.00
2023-01-21T09:07:05.961Z,92625.00
2023-01-21T09:08:06.041Z,92625.00
2023-01-21T09:09:06.090Z,92627.00
2023-01-21T09:10:06.301Z,92627.00
2023-01-21T09:11:06.202Z,92627.00
2023-01-21T09:12:06.278Z,92628.00
2023-01-21T09:13:06.326Z,92628.00
2023-01-21T09:14:06.391Z,92630.00
2023-01-21T09:15:06.443Z,92625.00
2023-01-21T09:16:06.516Z,92625.00
2023-01-21T09:17:06.553Z,92627.00
2023-01-21T09:18:06.604Z,92625.00
2023-01-21T09:19:06.676Z,92623.00
2023-01-21T09:20:06.812Z,92621.00
2023-01-21T09:21:06.802Z,92623.00
2023-01-21T09:22:06.924Z,92625.00
2023-01-21T09:23:06.934Z,92623.00
2023-01-21T09:24:06.977Z,92623.00
2023-01-21T09:25:07.030Z,92621.00
2023-01-21T09:26:07.099Z,92625.00
2023-01-21T09:27:07.152Z,92628.00
2023-01-21T09:28:07.207Z,92623.00
2023-01-21T09:29:07.262Z,92625.00
2023-01-21T09:30:07.323Z,92625.00
2023-01-21T09:31:08.151Z,92619.00
2023-01-21T09:32:07.423Z,92623.00
2023-01-21T09:33:07.484Z,92621.00
2023-01-21T09:34:07.531Z,92619.00
2023-01-21T09:35:07.586Z,92625.00
2023-01-21T09:36:07.652Z,92625.00
2023-01-21T09:37:07.680Z,92623.00
2023-01-21T09:38:07.741Z,92628.00
2023-01-21T09:39:07.822Z,92623.00
2023-01-21T09:40:07.831Z,92625.00
2023-01-21T09:41:07.899Z,92628.00
2023-01-21T09:42:07.933Z,92627.00
2023-01-21T09:43:07.974Z,92630.00
2023-01-21T09:44:08.089Z,92623.00
2023-01-21T09:45:08.045Z,92628.00
2023-01-21T09:46:08.780Z,92630.00
2023-01-21T09:47:08.100Z,92628.00
2023-01-21T09:48:08.136Z,92628.00
2023-01-21T09:49:08.232Z,92628.00
2023-01-21T09:50:08.186Z,92625.00
2023-01-21T09:51:08.266Z,92625.00
2023-01-21T09:52:08.248Z,92623.00
2023-01-21T09:53:08.282Z,92627.00
2023-01-21T09:54:08.313Z,92625.00
2023-01-21T09:55:08.357Z,92623.00
2023-01-21T09:56:08.389Z,92621.00
2023-01-21T12:33:15.701Z,92521.00
2023-01-21T12:41:15.549Z,92517.00
2023-01-21T12:42:15.601Z,92519.00
2023-01-21T12:43:15.645Z,92519.00
2023-01-21T12:44:15.711Z,92517.00
2023-01-21T12:45:16.048Z,92517.00
2023-01-21T12:46:15.913Z,92517.00
2023-01-21T12:47:15.887Z,92517.00
2023-01-21T12:48:15.931Z,92519.00
2023-01-21T12:49:16.003Z,92519.00
2023-01-21T12:50:16.088Z,92517.00
2023-01-21T12:51:16.165Z,92517.00
2023-01-21T12:52:16.201Z,92521.00
2023-01-21T12:53:16.299Z,92517.00
2023-01-21T12:54:16.295Z,92515.00
2023-01-21T12:55:16.676Z,92515.00
2023-01-21T12:56:16.418Z,92515.00
2023-01-21T12:57:16.729Z,92515.00
2023-01-21T12:58:16.531Z,92517.00
2023-01-21T12:59:16.591Z,92515.00
2023-01-21T13:00:16.883Z,92515.00
2023-01-21T13:01:16.729Z,92517.00
2023-01-21T13:02:16.785Z,92515.00
2023-01-21T13:03:17.233Z,92521.00
2023-01-21T13:04:16.864Z,92517.00
2023-01-21T13:05:17.197Z,92519.00
2023-01-21T13:06:16.998Z,92519.00
2023-01-21T13:07:17.045Z,92519.00
2023-01-21T13:08:17.120Z,92521.00
2023-01-21T13:09:17.178Z,92523.00
2023-01-21T13:10:17.489Z,92519.00
2023-01-21T13:11:17.294Z,92523.00
2023-01-21T13:12:17.341Z,92523.00
2023-01-21T13:13:17.736Z,92521.00
2023-01-21T13:14:17.463Z,92525.00
2023-01-21T13:15:17.529Z,92521.00
2023-01-21T13:16:17.618Z,92521.00
2023-01-21T13:17:17.642Z,92523.00
2023-01-21T13:18:17.699Z,92525.00
2023-01-21T13:19:17.757Z,92527.00
2023-01-21T13:20:18.038Z,92523.00
2023-01-21T13:21:17.850Z,92521.00
2023-01-21T13:22:17.909Z,92525.00
2023-01-21T13:23:17.967Z,92521.00
2023-01-21T13:24:18.040Z,92523.00
2023-01-21T13:25:18.065Z,92529.00
2023-01-21T13:26:18.125Z,92527.00
2023-01-21T13:27:18.184Z,92529.00
2023-01-21T13:28:18.251Z,92531.00
2023-01-21T13:29:18.307Z,92531.00
2023-01-21T13:30:18.640Z,92533.00
2023-01-21T13:31:18.699Z,92531.00
2023-01-21T13:32:18.508Z,92531.00
2023-01-21T13:33:18.544Z,92535.00
2023-01-21T13:34:18.608Z,92533.00
2023-01-21T13:35:18.857Z,92535.00
2023-01-21T13:36:18.714Z,92536.00
2023-01-21T13:37:18.792Z,92536.00
2023-01-21T13:38:18.845Z,92535.00
2023-01-21T13:39:18.907Z,92538.00
2023-01-21T13:40:19.332Z,92540.00
2023-01-21T13:41:19.026Z,92538.00
2023-01-21T13:42:19.082Z,92542.00
2023-01-21T13:43:19.142Z,92546.00
2023-01-21T13:44:19.205Z,92542.00
2023-01-21T13:45:19.259Z,92544.00
2023-01-21T13:46:19.317Z,92544.00
2023-01-21T13:47:19.371Z,92548.00
2023-01-21T13:48:19.445Z,92546.00
2023-01-21T13:49:19.496Z,92546.00
2023-01-21T13:50:19.797Z,92548.00
2023-01-21T13:51:19.677Z,92552.00
2023-01-21T13:52:19.676Z,92554.00
2023-01-21T13:53:19.744Z,92554.00
2023-01-21T13:54:19.815Z,92552.00
2023-01-21T13:55:19.910Z,92556.00
2023-01-21T13:56:19.927Z,92556.00
2023-01-21T13:57:20.068Z,92558.00
2023-01-21T13:58:20.058Z,92556.00
2023-01-21T13:59:20.119Z,92560.00
2023-01-21T14:00:20.171Z,92558.00
2023-01-21T14:01:20.237Z,92558.00
2023-01-21T14:02:20.353Z,92558.00
2023-01-21T14:03:20.337Z,92560.00
2023-01-21T14:04:20.382Z,92562.00
2023-01-21T14:05:20.408Z,92558.00
2023-01-21T14:06:20.443Z,92562.00
2023-01-21T14:07:20.466Z,92558.00
2023-01-21T14:08:20.491Z,92558.00
2023-01-21T14:09:21.651Z,92558.00
2023-01-21T14:10:20.553Z,92558.00
2023-01-21T14:12:20.605Z,92560.00
2023-01-21T14:13:20.636Z,92558.00
2023-01-21T14:14:20.661Z,92560.00
2023-01-21T14:15:20.664Z,92562.00
2023-01-21T14:16:20.718Z,92564.00
2023-01-21T16:53:21.825Z,92701.00
2023-01-21T16:54:21.821Z,92699.00
2023-01-21T16:55:21.817Z,92699.00
2023-01-21T16:56:21.800Z,92701.00
2023-01-21T16:57:21.784Z,92701.00
2023-01-21T16:58:21.778Z,92701.00
2023-01-21T16:59:21.785Z,92703.00
2023-01-21T17:00:21.772Z,92699.00
2023-01-21T17:01:21.782Z,92701.00
2023-01-21T17:02:21.793Z,92705.00
2023-01-21T17:03:21.774Z,92705.00
2023-01-21T17:04:21.741Z,92705.00
2023-01-21T17:05:21.725Z,92705.00
2023-01-21T17:06:21.739Z,92707.00
2023-01-21T17:07:21.722Z,92709.00
2023-01-21T17:08:21.703Z,92709.00
2023-01-21T17:09:21.706Z,92709.00
2023-01-21T17:10:21.777Z,92713.00
2023-01-21T17:11:21.698Z,92715.00
2023-01-21T17:12:21.687Z,92711.00
2023-01-21T17:13:21.663Z,92709.00
2023-01-21T17:14:21.661Z,92713.00
2023-01-21T17:15:21.664Z,92717.00
2023-01-21T17:16:21.646Z,92715.00
2023-01-21T17:17:21.651Z,92717.00
2023-01-21T17:18:21.665Z,92717.00
2023-01-21T17:19:21.684Z,92715.00
2023-01-21T17:20:21.623Z,92715.00
2023-01-21T17:21:21.608Z,92717.00
2023-01-21T17:22:21.600Z,92719.00
2023-01-21T17:23:21.593Z,92719.00
2023-01-21T17:24:21.583Z,92721.00
2023-01-21T17:25:22.322Z,92721.00
2023-01-21T17:26:21.581Z,92721.00
2023-01-21T17:27:21.586Z,92725.00
2023-01-21T17:28:21.578Z,92726.00
2023-01-21T17:29:21.590Z,92726.00
2023-01-21T17:30:21.587Z,92726.00
2023-01-21T17:31:21.782Z,92725.00
2023-01-21T17:32:21.589Z,92728.00
2023-01-21T17:33:21.592Z,92726.00
2023-01-21T17:34:21.631Z,92730.00
2023-01-21T17:35:23.435Z,92732.00
2023-01-21T17:36:21.611Z,92734.00
2023-01-21T17:37:21.623Z,92734.00
2023-01-21T17:38:21.625Z,92738.00
2023-01-21T17:39:21.623Z,92740.00
2023-01-21T17:40:21.640Z,92742.00
2023-01-21T17:41:21.655Z,92742.00
2023-01-21T17:42:21.649Z,92742.00
2023-01-21T17:43:21.665Z,92738.00
2023-01-21T17:44:21.665Z,92742.00
2023-01-21T17:45:21.667Z,92744.00
2023-01-21T17:46:21.704Z,92746.00
2023-01-21T17:47:21.695Z,92746.00
2023-01-21T17:48:21.731Z,92746.00
2023-01-21T17:49:21.692Z,92748.00
2023-01-21T17:50:21.700Z,92748.00
2023-01-21T17:51:21.767Z,92752.00
2023-01-21T17:52:21.697Z,92750.00
2023-01-21T17:53:21.705Z,92756.00
2023-01-21T17:54:21.718Z,92752.00
2023-01-21T17:55:21.723Z,92756.00
2023-01-21T17:56:21.717Z,92758.00
2023-01-21T17:57:21.729Z,92758.00
2023-01-21T17:58:21.800Z,92760.00
2023-01-21T17:59:21.732Z,92762.00
2023-01-21T18:00:21.742Z,92760.00
2023-01-21T18:01:21.804Z,92760.00
2023-01-21T18:02:21.763Z,92762.00
2023-01-21T18:03:21.863Z,92758.00
2023-01-21T18:04:21.759Z,92760.00
2023-01-21T18:05:21.767Z,92762.00
2023-01-21T18:06:21.768Z,92764.00
2023-01-21T18:07:21.785Z,92762.00
2023-01-21T18:08:21.785Z,92762.00
2023-01-21T18:09:21.768Z,92766.00
2023-01-21T18:10:21.792Z,92766.00
2023-01-21T18:11:21.776Z,92764.00
2023-01-21T18:12:21.819Z,92766.00
2023-01-21T18:13:21.802Z,92764.00
2023-01-21T18:14:21.803Z,92768.00
2023-01-21T18:15:21.807Z,92766.00
2023-01-21T18:16:21.868Z,92768.00
2023-01-21T18:17:21.842Z,92766.00
2023-01-21T18:18:21.830Z,92770.00
2023-01-21T18:19:21.837Z,92770.00
2023-01-21T18:20:21.855Z,92774.00
2023-01-21T18:21:21.864Z,92774.00
2023-01-21T18:22:22.348Z,92772.00
2023-01-21T18:23:21.859Z,92774.00
2023-01-21T18:24:21.917Z,92772.00
2023-01-21T18:25:21.868Z,92774.00
2023-01-21T18:26:21.877Z,92776.00
2023-01-21T18:27:22.538Z,92774.00
2023-01-21T18:28:21.891Z,92776.00
2023-01-21T18:29:21.908Z,92776.00
2023-01-21T18:30:21.891Z,92776.00
2023-01-21T18:31:21.949Z,92774.00
2023-01-21T18:32:21.933Z,92776.00
2023-01-21T18:33:21.999Z,92776.00
2023-01-21T18:34:21.925Z,92777.00
2023-01-21T18:35:21.933Z,92777.00
2023-01-21T18:36:21.927Z,92779.00
2023-01-21T18:37:21.949Z,92781.00
2023-01-21T18:38:21.966Z,92781.00
2023-01-21T18:39:21.969Z,92783.00
2023-01-21T18:50:22.049Z,92791.00
2023-01-21T18:51:22.091Z,92793.00
2023-01-21T18:52:22.086Z,92793.00
2023-01-21T18:53:22.171Z,92791.00
2023-01-21T18:54:22.085Z,92791.00
2023-01-21T18:55:22.100Z,92797.00
2023-01-21T18:56:22.111Z,92793.00
2023-01-21T18:57:22.117Z,92793.00
2023-01-21T18:58:22.199Z,92793.00
2023-01-21T18:59:22.194Z,92795.00
2023-01-21T19:00:22.175Z,92791.00
2023-01-21T19:01:24.048Z,92793.00
2023-01-21T19:02:22.240Z,92795.00
2023-01-21T19:03:22.176Z,92793.00
2023-01-21T19:04:22.191Z,92795.00
2023-01-21T19:05:22.206Z,92795.00
2023-01-21T19:06:22.217Z,92797.00
2023-01-21T19:07:22.222Z,92799.00
2023-01-21T19:08:22.251Z,92797.00
2023-01-21T19:09:22.244Z,92797.00
2023-01-21T19:10:22.259Z,92795.00
2023-01-21T19:11:22.274Z,92797.00
2023-01-21T19:12:22.282Z,92797.00
2023-01-21T19:13:22.314Z,92795.00
2023-01-21T19:14:22.322Z,92795.00
2023-01-21T19:15:22.319Z,92793.00
2023-01-21T19:16:22.455Z,92795.00
2023-01-21T19:17:22.347Z,92795.00
2023-01-21T19:18:22.353Z,92795.00
2023-01-21T19:19:22.427Z,92797.00
2023-01-21T19:20:22.362Z,92797.00
2023-01-21T19:21:22.389Z,92795.00
2023-01-21T19:22:22.382Z,92797.00
2023-01-21T19:23:22.390Z,92799.00
2023-01-21T19:24:22.462Z,92801.00
2023-01-21T19:25:22.399Z,92801.00
2023-01-21T19:26:22.388Z,92799.00
2023-01-21T19:27:22.396Z,92799.00
2023-01-21T19:28:22.404Z,92801.00
2023-01-21T19:29:22.433Z,92797.00
2023-01-21T19:31:22.525Z,92797.00
2023-01-21T19:32:22.430Z,92797.00
2023-01-21T19:33:22.460Z,92797.00
2023-01-21T19:34:22.470Z,92799.00
2023-01-21T19:35:22.475Z,92801.00
2023-01-21T20:12:23.026Z,92815.00
2023-01-21T20:13:23.054Z,92811.00
2023-01-21T20:14:23.065Z,92815.00
2023-01-21T20:15:23.094Z,92813.00
2023-01-21T20:16:23.169Z,92813.00
2023-01-21T20:17:23.117Z,92813.00
2023-01-21T20:18:23.141Z,92817.00
2023-01-21T20:19:23.162Z,92811.00
2023-01-21T20:20:23.181Z,92819.00
2023-01-21T20:21:23.212Z,92815.00
2023-01-21T20:22:23.280Z,92817.00
2023-01-21T20:23:23.230Z,92817.00
2023-01-21T20:24:23.265Z,92819.00
2023-01-21T20:25:23.274Z,92819.00
2023-01-21T20:26:23.289Z,92819.00
2023-01-21T20:27:23.300Z,92821.00
2023-01-21T20:28:23.306Z,92821.00
2023-01-21T20:29:23.342Z,92830.00
2023-01-21T20:30:23.330Z,92821.00
2023-01-21T20:31:23.448Z,92823.00
2023-01-21T20:32:23.362Z,92823.00
2023-01-21T20:33:23.394Z,92823.00
2023-01-21T20:34:23.895Z,92823.00
2023-01-21T20:35:23.430Z,92832.00
2023-01-21T20:36:23.454Z,92830.00
2023-01-21T20:37:23.450Z,92832.00
2023-01-21T20:38:23.465Z,92830.00
2023-01-21T20:39:23.483Z,92830.00
2023-01-21T23:02:25.537Z,92838.00
2023-01-21T23:05:25.608Z,92834.00
2023-01-21T23:06:25.561Z,92834.00
2023-01-21T23:07:25.564Z,92838.00
2023-01-21T23:08:25.575Z,92836.00
2023-01-21T23:09:25.610Z,92836.00
2023-01-21T23:10:25.599Z,92836.00
2023-01-21T23:11:25.617Z,92836.00
2023-01-21T23:12:25.632Z,92834.00
2023-01-21T23:13:25.645Z,92832.00
2023-01-21T23:14:25.666Z,92834.00
2023-01-21T23:15:25.674Z,92834.00
2023-01-21T23:16:25.703Z,92836.00
2023-01-21T23:17:25.713Z,92838.00
2023-01-21T23:18:25.731Z,92838.00
2023-01-21T23:19:25.757Z,92838.00
2023-01-21T23:20:25.764Z,92836.00
2023-01-21T23:21:25.807Z,92834.00
2023-01-21T23:22:25.881Z,92836.00
2023-01-21T23:23:25.834Z,92836.00
2023-01-21T23:24:25.835Z,92834.00
2023-01-21T23:25:25.853Z,92830.00
2023-01-21T23:26:25.876Z,92830.00
2023-01-21T23:27:25.893Z,92823.00
2023-01-21T23:28:25.905Z,92823.00
2023-01-21T23:29:25.924Z,92821.00
2023-01-21T23:30:25.931Z,92821.00
2023-01-21T23:31:26.067Z,92821.00
2023-01-21T23:32:25.974Z,92821.00
2023-01-21T23:33:26.047Z,92819.00
2023-01-21T23:34:26.003Z,92823.00
2023-01-21T23:35:26.032Z,92817.00
2023-01-21T23:36:26.032Z,92821.00
2023-01-21T23:37:26.058Z,92815.00
2023-01-21T23:38:26.087Z,92813.00
2023-01-21T23:39:26.087Z,92817.00
2023-01-21T23:40:26.104Z,92817.00
2023-01-21T23:41:26.127Z,92815.00
2023-01-21T23:42:26.146Z,92817.00
2023-01-21T23:43:26.156Z,92815.00
2023-01-21T23:44:26.201Z,92817.00
2023-01-21T23:45:26.202Z,92813.00
2023-01-21T23:46:26.267Z,92813.00
2023-01-21T23:47:26.241Z,92811.00
2023-01-21T23:48:26.286Z,92815.00
2023-01-21T23:49:26.285Z,92813.00
2023-01-21T23:50:26.297Z,92813.00
2023-01-21T23:51:26.322Z,92815.00
2023-01-21T23:52:26.337Z,92815.00
2023-01-21T23:53:26.378Z,92817.00
2023-01-21T23:54:26.377Z,92817.00
2023-01-21T23:55:26.395Z,92815.00
2023-01-21T23:56:26.412Z,92811.00
2023-01-21T23:57:26.414Z,92819.00
2023-01-21T23:58:26.431Z,92817.00
2023-01-21T23:59:26.487Z,92817.00
